sensor_id;sensor_type;location;lat;lon;timestamp;pressure;altitude;pressure_sealevel;temperature;humidity
76551;BME280;68768;53.156;18.164;2024-02-21T00:02:20;101747.60;;;5.93;84.69
76551;BME280;68768;53.156;18.164;2024-02-21T00:04:47;101746.36;;;5.94;84.93
76551;BME280;68768;53.156;18.164;2024-02-21T00:07:14;101748.83;;;5.94;84.86
76551;BME280;68768;53.156;18.164;2024-02-21T00:09:41;101748.13;;;5.95;84.77
76551;BME280;68768;53.156;18.164;2024-02-21T00:12:08;101741.79;;;5.96;84.91
76551;BME280;68768;53.156;18.164;2024-02-21T00:14:35;101740.20;;;5.96;85.21
76551;BME280;68768;53.156;18.164;2024-02-21T00:17:02;101746.72;;;5.96;85.08
76551;BME280;68768;53.156;18.164;2024-02-21T00:19:29;101740.73;;;5.96;85.14
76551;BME280;68768;53.156;18.164;2024-02-21T00:21:56;101741.96;;;5.96;85.11
76551;BME280;68768;53.156;18.164;2024-02-21T00:24:22;101740.73;;;5.96;85.18
76551;BME280;68768;53.156;18.164;2024-02-21T00:26:50;101736.67;;;5.96;85.30
76551;BME280;68768;53.156;18.164;2024-02-21T00:29:16;101737.03;;;5.96;85.52
76551;BME280;68768;53.156;18.164;2024-02-21T00:31:43;101734.73;;;5.97;85.31
76551;BME280;68768;53.156;18.164;2024-02-21T00:34:11;101735.61;;;5.97;85.43
76551;BME280;68768;53.156;18.164;2024-02-21T00:36:39;101732.09;;;5.97;85.51
76551;BME280;68768;53.156;18.164;2024-02-21T00:39:06;101724.34;;;5.97;85.64
76551;BME280;68768;53.156;18.164;2024-02-21T00:41:33;101723.98;;;5.98;85.51
76551;BME280;68768;53.156;18.164;2024-02-21T00:44:00;101725.58;;;5.99;85.60
76551;BME280;68768;53.156;18.164;2024-02-21T00:46:27;101723.46;;;5.99;85.62
76551;BME280;68768;53.156;18.164;2024-02-21T00:48:54;101722.41;;;5.99;85.58
76551;BME280;68768;53.156;18.164;2024-02-21T00:51:21;101718.70;;;5.99;85.74
76551;BME280;68768;53.156;18.164;2024-02-21T00:53:48;101713.60;;;5.99;85.53
76551;BME280;68768;53.156;18.164;2024-02-21T00:56:16;101712.19;;;5.99;85.74
76551;BME280;68768;53.156;18.164;2024-02-21T00:58:43;101706.73;;;5.99;85.75
76551;BME280;68768;53.156;18.164;2024-02-21T01:01:10;101710.95;;;5.99;85.78
76551;BME280;68768;53.156;18.164;2024-02-21T01:03:39;101708.14;;;5.99;85.87
76551;BME280;68768;53.156;18.164;2024-02-21T01:06:06;101705.31;;;5.99;85.73
76551;BME280;68768;53.156;18.164;2024-02-21T01:08:33;101694.04;;;5.99;85.76
76551;BME280;68768;53.156;18.164;2024-02-21T01:11:00;101695.61;;;5.98;85.88
76551;BME280;68768;53.156;18.164;2024-02-21T01:13:26;101691.92;;;5.98;85.83
76551;BME280;68768;53.156;18.164;2024-02-21T01:15:53;101692.09;;;5.99;85.92
76551;BME280;68768;53.156;18.164;2024-02-21T01:18:20;101691.21;;;5.99;86.07
76551;BME280;68768;53.156;18.164;2024-02-21T01:20:47;101686.27;;;6.00;86.03
76551;BME280;68768;53.156;18.164;2024-02-21T01:23:14;101688.73;;;6.00;86.09
76551;BME280;68768;53.156;18.164;2024-02-21T01:25:41;101680.99;;;6.00;86.07
76551;BME280;68768;53.156;18.164;2024-02-21T01:28:08;101678.50;;;6.01;86.07
76551;BME280;68768;53.156;18.164;2024-02-21T01:30:34;101678.86;;;6.01;86.15
76551;BME280;68768;53.156;18.164;2024-02-21T01:33:01;101679.73;;;6.01;86.17
76551;BME280;68768;53.156;18.164;2024-02-21T01:35:28;101674.27;;;6.02;86.20
76551;BME280;68768;53.156;18.164;2024-02-21T01:37:55;101671.44;;;6.04;86.01
76551;BME280;68768;53.156;18.164;2024-02-21T01:40:23;101669.86;;;6.04;86.03
76551;BME280;68768;53.156;18.164;2024-02-21T01:42:50;101667.91;;;6.04;86.18
76551;BME280;68768;53.156;18.164;2024-02-21T01:45:16;101664.56;;;6.05;86.09
76551;BME280;68768;53.156;18.164;2024-02-21T01:47:43;101667.91;;;6.05;86.17
76551;BME280;68768;53.156;18.164;2024-02-21T01:50:11;101661.39;;;6.05;86.06
76551;BME280;68768;53.156;18.164;2024-02-21T01:52:41;101657.86;;;6.06;86.22
76551;BME280;68768;53.156;18.164;2024-02-21T01:55:10;101656.98;;;6.05;86.22
76551;BME280;68768;53.156;18.164;2024-02-21T01:57:41;101657.70;;;6.04;85.99
76551;BME280;68768;53.156;18.164;2024-02-21T02:00:10;101656.46;;;6.05;86.45
76551;BME280;68768;53.156;18.164;2024-02-21T02:02:40;101656.11;;;6.04;86.26
76551;BME280;68768;53.156;18.164;2024-02-21T02:05:07;101653.47;;;6.04;86.17
76551;BME280;68768;53.156;18.164;2024-02-21T02:07:34;101654.70;;;6.04;86.23
76551;BME280;68768;53.156;18.164;2024-02-21T02:10:01;101651.89;;;6.05;86.27
76551;BME280;68768;53.156;18.164;2024-02-21T02:12:28;101651.00;;;6.06;86.25
76551;BME280;68768;53.156;18.164;2024-02-21T02:15:02;101654.88;;;6.06;86.22
76551;BME280;68768;53.156;18.164;2024-02-21T02:17:32;101647.47;;;6.06;86.29
76551;BME280;68768;53.156;18.164;2024-02-21T02:19:59;101643.77;;;6.07;86.11
76551;BME280;68768;53.156;18.164;2024-02-21T02:22:31;101638.13;;;6.06;86.18
76551;BME280;68768;53.156;18.164;2024-02-21T02:25:01;101636.19;;;6.07;86.10
76551;BME280;68768;53.156;18.164;2024-02-21T02:27:28;101631.96;;;6.07;86.18
76551;BME280;68768;53.156;18.164;2024-02-21T02:29:55;101630.38;;;6.08;86.29
76551;BME280;68768;53.156;18.164;2024-02-21T02:32:21;101629.32;;;6.08;86.44
76551;BME280;68768;53.156;18.164;2024-02-21T02:34:48;101628.97;;;6.07;86.69
76551;BME280;68768;53.156;18.164;2024-02-21T02:37:15;101624.03;;;6.05;86.39
76551;BME280;68768;53.156;18.164;2024-02-21T02:39:42;101622.98;;;6.05;86.40
76551;BME280;68768;53.156;18.164;2024-02-21T02:42:09;101624.39;;;6.05;86.31
76551;BME280;68768;53.156;18.164;2024-02-21T02:44:36;101623.85;;;6.06;86.38
76551;BME280;68768;53.156;18.164;2024-02-21T02:47:04;101621.92;;;6.07;86.42
76551;BME280;68768;53.156;18.164;2024-02-21T02:49:31;101620.33;;;6.07;86.34
76551;BME280;68768;53.156;18.164;2024-02-21T02:51:57;101617.86;;;6.07;86.30
76551;BME280;68768;53.156;18.164;2024-02-21T02:54:24;101612.05;;;6.07;86.34
76551;BME280;68768;53.156;18.164;2024-02-21T02:56:51;101608.70;;;6.07;86.40
76551;BME280;68768;53.156;18.164;2024-02-21T02:59:18;101601.13;;;6.05;86.29
76551;BME280;68768;53.156;18.164;2024-02-21T03:01:45;101599.89;;;6.08;86.42
76551;BME280;68768;53.156;18.164;2024-02-21T03:04:12;101590.89;;;6.08;86.32
76551;BME280;68768;53.156;18.164;2024-02-21T03:06:39;101593.37;;;6.08;86.52
76551;BME280;68768;53.156;18.164;2024-02-21T03:09:06;101591.95;;;6.09;86.35
76551;BME280;68768;53.156;18.164;2024-02-21T03:11:35;101595.30;;;6.09;86.43
76551;BME280;68768;53.156;18.164;2024-02-21T03:14:03;101591.08;;;6.08;86.39
76551;BME280;68768;53.156;18.164;2024-02-21T03:16:30;101584.38;;;6.07;86.40
76551;BME280;68768;53.156;18.164;2024-02-21T03:18:57;101585.61;;;6.09;86.41
76551;BME280;68768;53.156;18.164;2024-02-21T03:21:24;101587.90;;;6.09;86.63
76551;BME280;68768;53.156;18.164;2024-02-21T03:23:51;101584.20;;;6.09;86.49
76551;BME280;68768;53.156;18.164;2024-02-21T03:26:18;101585.61;;;6.09;86.58
76551;BME280;68768;53.156;18.164;2024-02-21T03:28:45;101585.44;;;6.10;86.51
76551;BME280;68768;53.156;18.164;2024-02-21T03:31:15;101581.55;;;6.10;86.38
76551;BME280;68768;53.156;18.164;2024-02-21T03:33:42;101581.55;;;6.09;86.54
76551;BME280;68768;53.156;18.164;2024-02-21T03:36:14;101578.21;;;6.08;86.59
76551;BME280;68768;53.156;18.164;2024-02-21T03:38:42;101579.27;;;6.08;86.57
76551;BME280;68768;53.156;18.164;2024-02-21T03:41:09;101573.45;;;6.07;86.79
76551;BME280;68768;53.156;18.164;2024-02-21T03:43:37;101573.11;;;6.06;86.68
76551;BME280;68768;53.156;18.164;2024-02-21T03:46:05;101573.11;;;6.05;86.82
76551;BME280;68768;53.156;18.164;2024-02-21T03:48:33;101570.81;;;6.05;86.70
76551;BME280;68768;53.156;18.164;2024-02-21T03:51:00;101569.05;;;6.06;86.94
76551;BME280;68768;53.156;18.164;2024-02-21T03:53:27;101565.88;;;6.06;86.77
76551;BME280;68768;53.156;18.164;2024-02-21T03:55:55;101562.00;;;6.06;86.71
76551;BME280;68768;53.156;18.164;2024-02-21T03:58:22;101558.83;;;6.07;86.91
76551;BME280;68768;53.156;18.164;2024-02-21T04:00:49;101557.23;;;6.07;86.76
76551;BME280;68768;53.156;18.164;2024-02-21T04:03:16;101559.17;;;6.08;86.68
76551;BME280;68768;53.156;18.164;2024-02-21T04:05:43;101557.95;;;6.08;86.85
76551;BME280;68768;53.156;18.164;2024-02-21T04:08:10;101555.83;;;6.08;87.09
76551;BME280;68768;53.156;18.164;2024-02-21T04:10:37;101554.23;;;6.08;87.03
76551;BME280;68768;53.156;18.164;2024-02-21T04:13:05;101552.48;;;6.08;86.93
76551;BME280;68768;53.156;18.164;2024-02-21T04:15:33;101552.31;;;6.09;87.06
76551;BME280;68768;53.156;18.164;2024-02-21T04:18:00;101550.89;;;6.09;87.01
76551;BME280;68768;53.156;18.164;2024-02-21T04:20:27;101543.66;;;6.09;86.92
76551;BME280;68768;53.156;18.164;2024-02-21T04:22:54;101541.73;;;6.09;87.04
76551;BME280;68768;53.156;18.164;2024-02-21T04:25:21;101536.09;;;6.09;87.18
76551;BME280;68768;53.156;18.164;2024-02-21T04:27:48;101530.63;;;6.09;87.05
76551;BME280;68768;53.156;18.164;2024-02-21T04:30:15;101526.75;;;6.09;87.14
76551;BME280;68768;53.156;18.164;2024-02-21T04:32:42;101527.98;;;6.09;86.97
76551;BME280;68768;53.156;18.164;2024-02-21T04:35:09;101525.34;;;6.10;87.09
76551;BME280;68768;53.156;18.164;2024-02-21T04:37:36;101521.81;;;6.10;87.22
76551;BME280;68768;53.156;18.164;2024-02-21T04:40:03;101522.16;;;6.10;87.29
76551;BME280;68768;53.156;18.164;2024-02-21T04:42:31;101518.29;;;6.09;87.50
76551;BME280;68768;53.156;18.164;2024-02-21T04:44:58;101519.52;;;6.09;87.40
76551;BME280;68768;53.156;18.164;2024-02-21T04:47:25;101512.47;;;6.10;87.46
76551;BME280;68768;53.156;18.164;2024-02-21T04:49:52;101509.30;;;6.09;87.29
76551;BME280;68768;53.156;18.164;2024-02-21T04:52:18;101508.42;;;6.09;87.60
76551;BME280;68768;53.156;18.164;2024-02-21T04:54:45;101502.96;;;6.09;87.58
76551;BME280;68768;53.156;18.164;2024-02-21T04:57:12;101504.54;;;6.08;87.65
76551;BME280;68768;53.156;18.164;2024-02-21T04:59:46;101499.43;;;6.07;87.56
76551;BME280;68768;53.156;18.164;2024-02-21T05:02:16;101501.91;;;6.07;87.87
76551;BME280;68768;53.156;18.164;2024-02-21T05:04:43;101496.45;;;6.06;87.67
76551;BME280;68768;53.156;18.164;2024-02-21T05:07:10;101492.23;;;6.06;87.76
76551;BME280;68768;53.156;18.164;2024-02-21T05:09:38;101494.34;;;6.05;87.82
76551;BME280;68768;53.156;18.164;2024-02-21T05:12:05;101490.81;;;6.05;87.53
76551;BME280;68768;53.156;18.164;2024-02-21T05:14:32;101487.82;;;6.05;87.71
76551;BME280;68768;53.156;18.164;2024-02-21T05:16:59;101487.30;;;6.05;87.83
76551;BME280;68768;53.156;18.164;2024-02-21T05:19:26;101484.48;;;6.04;87.79
76551;BME280;68768;53.156;18.164;2024-02-21T05:21:53;101479.55;;;6.04;87.79
76551;BME280;68768;53.156;18.164;2024-02-21T05:24:20;101478.13;;;6.04;87.69
76551;BME280;68768;53.156;18.164;2024-02-21T05:26:47;101474.61;;;6.04;87.85
76551;BME280;68768;53.156;18.164;2024-02-21T05:29:14;101471.08;;;6.04;87.84
76551;BME280;68768;53.156;18.164;2024-02-21T05:34:22;101461.05;;;6.03;87.87
76551;BME280;68768;53.156;18.164;2024-02-21T05:36:49;101457.88;;;6.03;87.98
76551;BME280;68768;53.156;18.164;2024-02-21T05:39:19;101453.98;;;6.03;88.00
76551;BME280;68768;53.156;18.164;2024-02-21T05:41:46;101451.88;;;6.03;88.02
76551;BME280;68768;53.156;18.164;2024-02-21T05:44:13;101454.70;;;6.04;88.00
76551;BME280;68768;53.156;18.164;2024-02-21T05:46:40;101454.17;;;6.03;88.34
76551;BME280;68768;53.156;18.164;2024-02-21T05:49:06;101452.59;;;6.03;88.23
76551;BME280;68768;53.156;18.164;2024-02-21T05:51:34;101453.12;;;6.02;88.13
76551;BME280;68768;53.156;18.164;2024-02-21T05:54:01;101451.02;;;6.01;88.25
76551;BME280;68768;53.156;18.164;2024-02-21T05:56:28;101452.23;;;6.02;88.18
76551;BME280;68768;53.156;18.164;2024-02-21T05:58:55;101448.19;;;6.03;88.30
76551;BME280;68768;53.156;18.164;2024-02-21T06:01:21;101449.60;;;6.02;88.24
76551;BME280;68768;53.156;18.164;2024-02-21T06:03:48;101440.43;;;6.02;88.09
76551;BME280;68768;53.156;18.164;2024-02-21T06:06:15;101434.61;;;6.03;88.12
76551;BME280;68768;53.156;18.164;2024-02-21T06:08:43;101433.90;;;6.04;88.16
76551;BME280;68768;53.156;18.164;2024-02-21T06:11:10;101435.31;;;6.03;88.36
76551;BME280;68768;53.156;18.164;2024-02-21T06:13:40;101433.56;;;6.03;88.35
76551;BME280;68768;53.156;18.164;2024-02-21T06:16:07;101434.96;;;6.03;88.43
76551;BME280;68768;53.156;18.164;2024-02-21T06:18:35;101431.96;;;6.04;88.31
76551;BME280;68768;53.156;18.164;2024-02-21T06:21:03;101431.08;;;6.05;88.50
76551;BME280;68768;53.156;18.164;2024-02-21T06:23:31;101430.89;;;6.05;88.59
76551;BME280;68768;53.156;18.164;2024-02-21T06:25:58;101426.67;;;6.05;88.44
76551;BME280;68768;53.156;18.164;2024-02-21T06:28:25;101422.09;;;6.06;88.37
76551;BME280;68768;53.156;18.164;2024-02-21T06:30:52;101423.31;;;6.06;88.29
76551;BME280;68768;53.156;18.164;2024-02-21T06:33:19;101423.66;;;6.07;88.58
76551;BME280;68768;53.156;18.164;2024-02-21T06:35:51;101424.20;;;6.07;88.59
76551;BME280;68768;53.156;18.164;2024-02-21T06:38:21;101422.42;;;6.08;88.47
76551;BME280;68768;53.156;18.164;2024-02-21T06:40:48;101417.14;;;6.08;88.66
76551;BME280;68768;53.156;18.164;2024-02-21T06:43:19;101417.84;;;6.09;88.52
76551;BME280;68768;53.156;18.164;2024-02-21T06:45:46;101411.48;;;6.10;88.35
76551;BME280;68768;53.156;18.164;2024-02-21T06:48:20;101410.74;;;6.11;88.35
76551;BME280;68768;53.156;18.164;2024-02-21T06:50:48;101407.06;;;6.11;88.55
76551;BME280;68768;53.156;18.164;2024-02-21T06:53:15;101404.75;;;6.12;88.53
76551;BME280;68768;53.156;18.164;2024-02-21T06:55:42;101408.78;;;6.14;88.44
76551;BME280;68768;53.156;18.164;2024-02-21T06:58:09;101406.84;;;6.15;88.42
76551;BME280;68768;53.156;18.164;2024-02-21T07:00:39;101403.14;;;6.16;88.59
76551;BME280;68768;53.156;18.164;2024-02-21T07:03:07;101403.14;;;6.16;88.60
76551;BME280;68768;53.156;18.164;2024-02-21T07:05:33;101400.13;;;6.18;88.53
76551;BME280;68768;53.156;18.164;2024-02-21T07:08:00;101401.88;;;6.18;88.45
76551;BME280;68768;53.156;18.164;2024-02-21T07:10:27;101402.41;;;6.20;88.48
76551;BME280;68768;53.156;18.164;2024-02-21T07:12:55;101394.80;;;6.21;88.59
76551;BME280;68768;53.156;18.164;2024-02-21T07:15:22;101390.02;;;6.22;88.40
76551;BME280;68768;53.156;18.164;2024-02-21T07:17:53;101381.90;;;6.24;88.41
76551;BME280;68768;53.156;18.164;2024-02-21T07:20:20;101378.36;;;6.25;88.42
76551;BME280;68768;53.156;18.164;2024-02-21T07:22:47;101374.31;;;6.27;88.43
76551;BME280;68768;53.156;18.164;2024-02-21T07:25:13;101370.94;;;6.29;88.33
76551;BME280;68768;53.156;18.164;2024-02-21T07:27:40;101368.79;;;6.31;88.49
76551;BME280;68768;53.156;18.164;2024-02-21T07:30:09;101366.30;;;6.32;88.24
76551;BME280;68768;53.156;18.164;2024-02-21T07:32:36;101361.71;;;6.34;88.40
76551;BME280;68768;53.156;18.164;2024-02-21T07:35:03;101363.30;;;6.33;88.24
76551;BME280;68768;53.156;18.164;2024-02-21T07:37:30;101367.50;;;6.36;88.39
76551;BME280;68768;53.156;18.164;2024-02-21T07:39:57;101369.09;;;6.37;88.28
76551;BME280;68768;53.156;18.164;2024-02-21T07:42:24;101365.38;;;6.37;88.24
76551;BME280;68768;53.156;18.164;2024-02-21T07:44:51;101361.67;;;6.38;88.17
76551;BME280;68768;53.156;18.164;2024-02-21T07:47:18;101363.24;;;6.40;88.21
76551;BME280;68768;53.156;18.164;2024-02-21T07:49:45;101360.94;;;6.41;88.29
76551;BME280;68768;53.156;18.164;2024-02-21T07:52:12;101358.79;;;6.42;88.18
76551;BME280;68768;53.156;18.164;2024-02-21T07:54:40;101357.02;;;6.43;88.14
76551;BME280;68768;53.156;18.164;2024-02-21T07:57:07;101352.07;;;6.45;88.11
76551;BME280;68768;53.156;18.164;2024-02-21T07:59:34;101353.13;;;6.46;88.30
76551;BME280;68768;53.156;18.164;2024-02-21T08:02:01;101356.45;;;6.47;88.18
76551;BME280;68768;53.156;18.164;2024-02-21T08:04:29;101356.10;;;6.48;88.19
76551;BME280;68768;53.156;18.164;2024-02-21T08:06:56;101348.50;;;6.49;88.56
76551;BME280;68768;53.156;18.164;2024-02-21T08:09:22;101343.74;;;6.50;88.38
76551;BME280;68768;53.156;18.164;2024-02-21T08:11:49;101335.93;;;6.52;88.48
76551;BME280;68768;53.156;18.164;2024-02-21T08:14:17;101331.67;;;6.53;88.44
76551;BME280;68768;53.156;18.164;2024-02-21T08:16:44;101328.86;;;6.54;88.22
76551;BME280;68768;53.156;18.164;2024-02-21T08:19:11;101329.37;;;6.56;88.16
76551;BME280;68768;53.156;18.164;2024-02-21T08:21:38;101324.95;;;6.57;88.46
76551;BME280;68768;53.156;18.164;2024-02-21T08:24:05;101316.48;;;6.58;88.36
76551;BME280;68768;53.156;18.164;2024-02-21T08:26:32;101314.53;;;6.59;88.60
76551;BME280;68768;53.156;18.164;2024-02-21T08:28:59;101316.11;;;6.59;88.49
76551;BME280;68768;53.156;18.164;2024-02-21T08:31:27;101314.33;;;6.61;88.51
76551;BME280;68768;53.156;18.164;2024-02-21T08:34:03;101308.98;;;6.63;88.58
76551;BME280;68768;53.156;18.164;2024-02-21T08:36:34;101303.67;;;6.65;88.52
76551;BME280;68768;53.156;18.164;2024-02-21T08:39:02;101303.84;;;6.67;88.70
76551;BME280;68768;53.156;18.164;2024-02-21T08:41:33;101308.05;;;6.69;88.50
76551;BME280;68768;53.156;18.164;2024-02-21T08:44:00;101314.92;;;6.71;88.48
76551;BME280;68768;53.156;18.164;2024-02-21T08:46:27;101321.08;;;6.72;88.55
76551;BME280;68768;53.156;18.164;2024-02-21T08:48:54;101322.45;;;6.73;88.45
76551;BME280;68768;53.156;18.164;2024-02-21T08:51:21;101320.16;;;6.73;88.53
76551;BME280;68768;53.156;18.164;2024-02-21T08:53:48;101316.80;;;6.73;88.50
76551;BME280;68768;53.156;18.164;2024-02-21T08:56:16;101314.33;;;6.74;88.35
76551;BME280;68768;53.156;18.164;2024-02-21T08:58:43;101308.34;;;6.73;88.45
76551;BME280;68768;53.156;18.164;2024-02-21T09:01:10;101310.45;;;6.74;88.28
76551;BME280;68768;53.156;18.164;2024-02-21T09:03:38;101309.73;;;6.74;88.44
76551;BME280;68768;53.156;18.164;2024-02-21T09:06:07;101310.62;;;6.74;88.36
76551;BME280;68768;53.156;18.164;2024-02-21T09:08:34;101303.56;;;6.74;88.46
76551;BME280;68768;53.156;18.164;2024-02-21T09:11:01;101299.48;;;6.76;88.63
76551;BME280;68768;53.156;18.164;2024-02-21T09:13:28;101299.46;;;6.78;88.67
76551;BME280;68768;53.156;18.164;2024-02-21T09:15:55;101299.27;;;6.81;88.56
76551;BME280;68768;53.156;18.164;2024-02-21T09:18:22;101298.86;;;6.83;88.46
76551;BME280;68768;53.156;18.164;2024-02-21T09:20:49;101297.59;;;6.85;88.46
76551;BME280;68768;53.156;18.164;2024-02-21T09:23:16;101293.15;;;6.88;88.47
76551;BME280;68768;53.156;18.164;2024-02-21T09:25:43;101288.19;;;6.90;88.39
76551;BME280;68768;53.156;18.164;2024-02-21T09:28:10;101280.95;;;6.91;88.39
76551;BME280;68768;53.156;18.164;2024-02-21T09:30:37;101281.11;;;6.91;88.50
76551;BME280;68768;53.156;18.164;2024-02-21T09:33:04;101281.30;;;6.91;88.30
76551;BME280;68768;53.156;18.164;2024-02-21T09:35:31;101281.13;;;6.90;88.24
76551;BME280;68768;53.156;18.164;2024-02-21T09:38:00;101285.54;;;6.91;88.25
76551;BME280;68768;53.156;18.164;2024-02-21T09:40:27;101281.47;;;6.92;88.50
76551;BME280;68768;53.156;18.164;2024-02-21T09:43:04;101277.02;;;6.93;88.50
76551;BME280;68768;53.156;18.164;2024-02-21T09:45:34;101278.23;;;6.94;88.28
76551;BME280;68768;53.156;18.164;2024-02-21T09:48:24;101276.44;;;6.97;88.24
76551;BME280;68768;53.156;18.164;2024-02-21T09:50:54;101272.38;;;6.97;88.50
76551;BME280;68768;53.156;18.164;2024-02-21T09:53:24;101274.67;;;6.96;88.40
76551;BME280;68768;53.156;18.164;2024-02-21T09:55:51;101274.50;;;6.97;88.30
76551;BME280;68768;53.156;18.164;2024-02-21T09:58:19;101268.66;;;6.97;88.43
76551;BME280;68768;53.156;18.164;2024-02-21T10:00:46;101263.34;;;6.99;88.42
76551;BME280;68768;53.156;18.164;2024-02-21T10:03:13;101263.65;;;7.02;88.58
76551;BME280;68768;53.156;18.164;2024-02-21T10:05:47;101261.34;;;7.03;88.41
76551;BME280;68768;53.156;18.164;2024-02-21T10:08:17;101264.50;;;7.04;88.41
76551;BME280;68768;53.156;18.164;2024-02-21T10:10:45;101270.14;;;7.05;88.50
76551;BME280;68768;53.156;18.164;2024-02-21T10:13:30;101265.91;;;7.04;88.46
76551;BME280;68768;53.156;18.164;2024-02-21T10:16:07;101264.85;;;7.04;88.32
76551;BME280;68768;53.156;18.164;2024-02-21T10:18:35;101273.52;;;7.03;88.48
76551;BME280;68768;53.156;18.164;2024-02-21T10:21:06;101271.92;;;7.03;88.57
76551;BME280;68768;53.156;18.164;2024-02-21T10:23:46;101270.69;;;7.03;88.52
76551;BME280;68768;53.156;18.164;2024-02-21T10:26:14;101263.27;;;7.04;88.52
76551;BME280;68768;53.156;18.164;2024-02-21T10:28:42;101258.83;;;7.06;88.58
76551;BME280;68768;53.156;18.164;2024-02-21T10:31:22;101261.27;;;7.09;88.68
76551;BME280;68768;53.156;18.164;2024-02-21T10:33:58;101254.20;;;7.09;88.83
76551;BME280;68768;53.156;18.164;2024-02-21T10:36:25;101250.96;;;7.12;88.70
76551;BME280;68768;53.156;18.164;2024-02-21T10:38:53;101249.20;;;7.13;88.69
76551;BME280;68768;53.156;18.164;2024-02-21T10:41:21;101253.59;;;7.13;88.50
76551;BME280;68768;53.156;18.164;2024-02-21T10:43:54;101249.67;;;7.15;88.62
76551;BME280;68768;53.156;18.164;2024-02-21T10:46:23;101243.83;;;7.17;88.68
76551;BME280;68768;53.156;18.164;2024-02-21T10:49:07;101238.52;;;7.19;88.69
76551;BME280;68768;53.156;18.164;2024-02-21T10:51:37;101231.60;;;7.21;88.74
76551;BME280;68768;53.156;18.164;2024-02-21T10:54:30;101233.31;;;7.23;88.67
76551;BME280;68768;53.156;18.164;2024-02-21T10:57:00;101230.28;;;7.25;88.83
76551;BME280;68768;53.156;18.164;2024-02-21T10:59:28;101222.50;;;7.25;88.70
76551;BME280;68768;53.156;18.164;2024-02-21T11:01:56;101216.14;;;7.26;88.65
76551;BME280;68768;53.156;18.164;2024-02-21T11:04:24;101211.70;;;7.28;88.79
76551;BME280;68768;53.156;18.164;2024-02-21T11:06:52;101208.50;;;7.29;88.67
76551;BME280;68768;53.156;18.164;2024-02-21T11:09:29;101205.48;;;7.31;88.69
76551;BME280;68768;53.156;18.164;2024-02-21T11:11:57;101201.55;;;7.33;88.74
76551;BME280;68768;53.156;18.164;2024-02-21T11:14:28;101200.63;;;7.35;88.87
76551;BME280;68768;53.156;18.164;2024-02-21T11:16:55;101196.20;;;7.35;88.83
76551;BME280;68768;53.156;18.164;2024-02-21T11:19:26;101189.10;;;7.38;88.75
76551;BME280;68768;53.156;18.164;2024-02-21T11:21:54;101183.58;;;7.41;88.61
76551;BME280;68768;53.156;18.164;2024-02-21T11:24:32;101176.61;;;7.45;88.71
76551;BME280;68768;53.156;18.164;2024-02-21T11:27:11;101168.45;;;7.48;88.66
76551;BME280;68768;53.156;18.164;2024-02-21T11:32:14;101160.79;;;7.52;88.90
76551;BME280;68768;53.156;18.164;2024-02-21T11:34:55;101149.80;;;7.54;88.65
76551;BME280;68768;53.156;18.164;2024-02-21T11:37:25;101151.71;;;7.55;88.65
76551;BME280;68768;53.156;18.164;2024-02-21T11:39:55;101143.56;;;7.56;88.87
76551;BME280;68768;53.156;18.164;2024-02-21T11:42:22;101138.79;;;7.56;88.79
76551;BME280;68768;53.156;18.164;2024-02-21T11:44:49;101141.23;;;7.58;88.75
76551;BME280;68768;53.156;18.164;2024-02-21T11:47:16;101137.98;;;7.61;88.70
76551;BME280;68768;53.156;18.164;2024-02-21T11:49:48;101131.91;;;7.64;88.64
76551;BME280;68768;53.156;18.164;2024-02-21T11:52:22;101135.40;;;7.67;88.73
76551;BME280;68768;53.156;18.164;2024-02-21T11:54:52;101135.03;;;7.68;88.46
76551;BME280;68768;53.156;18.164;2024-02-21T11:57:20;101133.04;;;7.70;88.55
76551;BME280;68768;53.156;18.164;2024-02-21T11:59:47;101127.89;;;7.72;88.35
76551;BME280;68768;53.156;18.164;2024-02-21T12:02:16;101129.78;;;7.74;88.47
76551;BME280;68768;53.156;18.164;2024-02-21T12:04:44;101134.89;;;7.74;88.38
76551;BME280;68768;53.156;18.164;2024-02-21T12:07:11;101133.63;;;7.75;88.37
76551;BME280;68768;53.156;18.164;2024-02-21T12:09:38;101130.93;;;7.78;88.43
76551;BME280;68768;53.156;18.164;2024-02-21T12:12:08;101121.18;;;7.80;88.36
76551;BME280;68768;53.156;18.164;2024-02-21T12:14:35;101115.88;;;7.80;88.27
76551;BME280;68768;53.156;18.164;2024-02-21T12:17:03;101113.40;;;7.81;88.19
76551;BME280;68768;53.156;18.164;2024-02-21T12:19:32;101111.28;;;7.80;88.06
76551;BME280;68768;53.156;18.164;2024-02-21T12:22:00;101101.77;;;7.79;88.16
76551;BME280;68768;53.156;18.164;2024-02-21T12:24:28;101104.05;;;7.79;88.13
76551;BME280;68768;53.156;18.164;2024-02-21T12:26:56;101106.52;;;7.80;88.26
76551;BME280;68768;53.156;18.164;2024-02-21T12:29:24;101110.26;;;7.78;88.09
76551;BME280;68768;53.156;18.164;2024-02-21T12:31:55;101110.25;;;7.79;88.13
76551;BME280;68768;53.156;18.164;2024-02-21T12:34:23;101108.47;;;7.80;88.17
76551;BME280;68768;53.156;18.164;2024-02-21T12:36:51;101113.58;;;7.80;88.18
76551;BME280;68768;53.156;18.164;2024-02-21T12:39:18;101114.10;;;7.81;88.24
76551;BME280;68768;53.156;18.164;2024-02-21T12:41:45;101118.34;;;7.81;88.10
76551;BME280;68768;53.156;18.164;2024-02-21T12:44:12;101115.33;;;7.82;88.09
76551;BME280;68768;53.156;18.164;2024-02-21T12:46:39;101106.66;;;7.82;88.07
76551;BME280;68768;53.156;18.164;2024-02-21T12:49:07;101103.10;;;7.83;88.03
76551;BME280;68768;53.156;18.164;2024-02-21T12:51:34;101108.58;;;7.83;88.04
76551;BME280;68768;53.156;18.164;2024-02-21T12:54:02;101103.27;;;7.83;87.97
76551;BME280;68768;53.156;18.164;2024-02-21T12:56:31;101106.45;;;7.84;87.95
76551;BME280;68768;53.156;18.164;2024-02-21T12:58:58;101108.19;;;7.84;88.00
76551;BME280;68768;53.156;18.164;2024-02-21T13:01:26;101107.14;;;7.84;88.02